Time;durP1;ratioP1;P1;durP2;ratioP2;P2;SDS_P1;SDS_P2;PMS_P1;PMS_P2;Temp;Humidity;BMP_temperature;BMP_pressure;BME280_temperature;BME280_humidity;BME280_pressure;Samples;Min_cycle;Max_cycle;Signal;HPM_P1;HPM_P2
2021/11/12 00:04:46;;;;;;;54.93;22.20;;;;;;;7.40;56.57;98508.06;8317007;28;20244;-65
2021/11/12 00:13:17;;;;;;;42.63;24.37;;;;;;;7.35;57.35;98504.78;8317786;28;20326;-65
2021/11/12 00:17:22;;;;;;;46.37;23.37;;;;;;;7.49;57.47;98501.03;8317735;28;20237;-65
2021/11/12 00:21:27;;;;;;;63.20;24.37;;;;;;;7.51;57.88;98502.69;8317091;28;20433;-65
2021/11/12 00:25:29;;;;;;;58.80;24.43;;;;;;;7.49;58.36;98512.19;8317714;28;20542;-66
2021/11/12 00:29:36;;;;;;;74.57;25.90;;;;;;;7.41;56.96;98508.94;8317700;28;20240;-65
2021/11/12 00:38:05;;;;;;;82.20;27.50;;;;;;;7.43;57.10;98512.31;8309450;28;20229;-65
2021/11/12 00:42:12;;;;;;;83.43;28.03;;;;;;;7.34;57.48;98510.78;8317245;28;20430;-65
2021/11/12 00:46:19;;;;;;;56.63;28.37;;;;;;;7.49;57.15;98512.19;8316574;28;20240;-65
2021/11/12 00:50:32;;;;;;;65.30;27.83;;;;;;;7.55;57.49;98509.44;8316405;28;20229;-65
2021/11/12 00:54:36;;;;;;;114.97;27.83;;;;;;;7.25;58.69;98505.84;8315769;28;20229;-65
2021/11/12 00:58:39;;;;;;;109.50;29.47;;;;;;;7.32;58.32;98504.84;8316655;28;20546;-65
2021/11/12 01:02:42;;;;;;;58.03;29.83;;;;;;;7.31;58.64;98491.97;8315901;28;20237;-65
2021/11/12 01:06:46;;;;;;;79.13;29.70;;;;;;;7.19;59.04;98498.25;8316070;28;20241;-65
2021/11/12 01:10:50;;;;;;;171.80;30.83;;;;;;;6.99;59.90;98506.44;8315728;28;20237;-65
2021/11/12 01:14:54;;;;;;;170.23;29.43;;;;;;;7.00;60.30;98502.97;8316029;28;20239;-65
2021/11/12 01:18:58;;;;;;;86.27;29.13;;;;;;;6.95;61.12;98495.34;8315718;28;20228;-65
2021/11/12 01:23:00;;;;;;;47.87;27.97;;;;;;;6.98;60.88;98499.56;8315724;28;20236;-65
2021/11/12 01:27:07;;;;;;;104.87;28.77;;;;;;;6.95;60.22;98489.31;8315648;28;20228;-65
2021/11/12 01:31:10;;;;;;;153.53;31.93;;;;;;;6.51;62.30;98493.66;8315708;28;20296;-65
2021/11/12 01:35:14;;;;;;;68.83;29.93;;;;;;;6.87;61.62;98489.50;8315594;28;20232;-64
2021/11/12 01:39:20;;;;;;;83.20;30.40;;;;;;;7.03;61.31;98482.31;8315383;28;20241;-65
2021/11/12 01:43:26;;;;;;;126.70;32.70;;;;;;;6.93;60.96;98479.09;8315877;28;20253;-65
2021/11/12 01:47:35;;;;;;;176.03;35.53;;;;;;;6.83;62.01;98482.72;8315881;28;20244;-65
2021/11/12 01:51:45;;;;;;;178.27;35.73;;;;;;;5.82;64.79;98485.44;8315148;28;20243;-65
2021/11/12 01:55:54;;;;;;;234.73;35.00;;;;;;;6.16;63.41;98477.19;8315344;28;20263;-65
2021/11/12 01:59:58;;;;;;;164.33;34.20;;;;;;;6.59;62.21;98478.94;8314457;28;20551;-65
2021/11/12 02:04:01;;;;;;;49.47;31.40;;;;;;;6.81;62.10;98469.03;8314862;28;20232;-64
2021/11/12 02:08:04;;;;;;;102.87;31.97;;;;;;;6.48;63.07;98466.28;8315063;28;20534;-65
2021/11/12 02:12:17;;;;;;;90.47;32.40;;;;;;;6.26;63.72;98460.69;8314574;28;20237;-64
2021/11/12 02:16:25;;;;;;;84.93;31.70;;;;;;;6.48;63.00;98453.41;8314781;28;20225;-64
2021/11/12 02:20:33;;;;;;;88.87;32.77;;;;;;;6.26;63.13;98458.97;8314915;28;20232;-65
2021/11/12 02:24:40;;;;;;;131.90;31.23;;;;;;;6.39;62.64;98446.72;8314270;28;20237;-65
2021/11/12 02:28:45;;;;;;;60.33;28.60;;;;;;;6.65;61.54;98453.06;8314143;28;20229;-65
2021/11/12 02:32:57;;;;;;;163.27;30.87;;;;;;;5.82;64.49;98463.16;8314670;28;20228;-64
2021/11/12 02:37:00;;;;;;;31.60;25.13;;;;;;;6.59;62.37;98456.63;8314165;28;20229;-64
2021/11/12 02:41:05;;;;;;;43.20;24.63;;;;;;;6.59;61.41;98458.34;8314129;28;20228;-65
2021/11/12 02:45:08;;;;;;;97.27;24.93;;;;;;;6.36;61.70;98445.91;8314094;28;20233;-65
2021/11/12 02:49:11;;;;;;;138.10;25.00;;;;;;;5.90;63.04;98451.91;8314256;28;20228;-65
2021/11/12 02:53:16;;;;;;;127.53;22.47;;;;;;;5.97;62.16;98453.53;8314118;28;20229;-65
2021/11/12 02:57:22;;;;;;;56.80;22.37;;;;;;;5.52;64.33;98454.25;8314060;28;20233;-65
2021/11/12 03:01:27;;;;;;;102.53;22.80;;;;;;;5.60;63.76;98457.53;8313292;28;20243;-65
2021/11/12 03:05:30;;;;;;;22.03;19.77;;;;;;;6.25;62.34;98446.16;8313851;28;20465;-65
2021/11/12 03:09:34;;;;;;;138.40;21.27;;;;;;;5.92;62.21;98438.16;8314458;28;20247;-65
2021/11/12 03:13:39;;;;;;;240.00;24.10;;;;;;;5.61;63.06;98443.81;8319819;28;20233;-64
2021/11/12 03:17:43;;;;;;;60.87;22.43;;;;;;;5.70;64.02;98441.97;8319327;28;20244;-65
2021/11/12 03:21:46;;;;;;;138.13;23.33;;;;;;;5.37;64.45;98446.78;8319593;28;20239;-65
2021/11/12 03:25:58;;;;;;;80.43;21.10;;;;;;;5.54;64.25;98446.50;8319505;28;20244;-64
2021/11/12 03:59:46;;;;;;;88.20;21.03;;;;;;;5.27;63.88;98446.94;8242729;28;20237;-64
2021/11/12 04:18:38;;;;;;;80.17;19.23;;;;;;;4.84;66.62;98444.97;8317163;28;20424;-65
2021/11/12 05:10:54;;;;;;;180.07;16.33;;;;;;;5.39;64.62;98450.19;8315822;28;20240;-65
2021/11/12 05:45:57;;;;;;;18.70;13.83;;;;;;;5.71;63.89;98431.66;8313390;28;20237;-64
2021/11/12 05:50:07;;;;;;;49.10;14.93;;;;;;;6.06;62.35;98420.78;8300359;28;20228;-64
2021/11/12 05:58:31;;;;;;;24.13;16.00;;;;;;;5.72;63.97;98424.81;8314318;28;20423;-65
2021/11/12 06:02:35;;;;;;;56.83;17.10;;;;;;;5.20;66.30;98424.78;8305561;28;20233;-65
2021/11/12 06:06:40;;;;;;;37.67;15.70;;;;;;;5.60;64.84;98421.56;8314440;28;20237;-65
2021/11/12 06:10:44;;;;;;;38.00;15.07;;;;;;;5.54;64.94;98419.13;8313923;28;20236;-65
2021/11/12 06:14:47;;;;;;;28.53;15.73;;;;;;;5.74;64.49;98415.34;8314520;28;20228;-65
2021/11/12 06:18:50;;;;;;;54.10;15.57;;;;;;;5.33;65.52;98422.00;8314877;28;20237;-65
2021/11/12 06:22:54;;;;;;;20.33;14.57;;;;;;;5.86;63.98;98420.25;8314958;28;20235;-65
2021/11/12 06:26:57;;;;;;;91.03;14.93;;;;;;;5.39;65.52;98417.66;8314416;28;20417;-64
2021/11/12 06:31:00;;;;;;;61.20;15.90;;;;;;;5.68;64.76;98414.56;8314554;28;20538;-65
2021/11/12 06:35:04;;;;;;;89.03;14.80;;;;;;;5.80;64.14;98410.94;8314746;28;20286;-64
2021/11/12 06:39:09;;;;;;;19.43;14.27;;;;;;;5.72;65.21;98399.13;8314491;28;20232;-65
2021/11/12 06:43:22;;;;;;;148.97;17.33;;;;;;;5.36;65.80;98396.28;8314730;28;20244;-64
2021/11/12 06:51:46;;;;;;;39.60;16.10;;;;;;;5.77;64.84;98398.16;8320421;28;20245;-64
2021/11/12 06:55:51;;;;;;;49.30;16.23;;;;;;;5.83;64.84;98397.19;8320655;28;20236;-64
2021/11/12 06:59:54;;;;;;;55.50;17.10;;;;;;;5.87;64.24;98409.94;8320328;28;20535;-65
2021/11/12 07:03:57;;;;;;;19.70;14.90;;;;;;;5.77;65.43;98403.28;8319915;28;20236;-64
2021/11/12 07:08:00;;;;;;;44.33;15.43;;;;;;;6.05;64.28;98395.97;8319547;28;20400;-64
2021/11/12 07:12:04;;;;;;;22.00;15.77;;;;;;;6.58;63.20;98395.72;8319068;28;20232;-64
2021/11/12 07:16:07;;;;;;;16.47;14.77;;;;;;;6.70;62.44;98398.91;8305196;28;20228;-64
2021/11/12 07:20:11;;;;;;;46.00;15.23;;;;;;;6.45;63.13;98396.84;8302367;28;20228;-65
2021/11/12 07:24:15;;;;;;;16.10;14.40;;;;;;;6.43;63.64;98399.44;8301914;28;20649;-65
2021/11/12 07:28:19;;;;;;;31.97;16.57;;;;;;;5.99;65.36;98398.63;8302218;28;20582;-64
2021/11/12 07:32:23;;;;;;;20.57;16.53;;;;;;;6.43;63.15;98399.44;8286592;28;20234;-64
2021/11/12 07:36:34;;;;;;;190.63;20.50;;;;;;;6.42;63.04;98402.09;8286003;28;20445;-65
2021/11/12 07:40:49;;;;;;;167.60;21.27;;;;;;;5.90;64.98;98403.06;8281365;28;20548;-65
2021/11/12 07:45:09;;;;;;;40.23;18.07;;;;;;;6.27;64.32;98392.94;8286324;28;20272;-64
2021/11/12 07:49:13;;;;;;;103.27;19.57;;;;;;;5.76;65.56;98393.88;8286071;28;20237;-64
2021/11/12 07:53:16;;;;;;;34.90;18.00;;;;;;;5.90;66.13;98391.03;8285979;28;20566;-64
2021/11/12 07:57:19;;;;;;;25.60;17.50;;;;;;;6.61;63.38;98376.81;8285487;28;20230;-64
2021/11/12 08:01:23;;;;;;;45.77;18.33;;;;;;;6.44;64.20;98377.16;8291782;28;20235;-64
2021/11/12 08:05:29;;;;;;;32.47;18.33;;;;;;;6.10;64.92;98374.44;8317578;28;20337;-65
2021/11/12 08:09:35;;;;;;;32.43;19.27;;;;;;;6.32;64.41;98375.72;8317215;28;20233;-64
2021/11/12 08:13:43;;;;;;;38.23;19.43;;;;;;;6.09;65.37;98381.28;8317895;28;20240;-64
2021/11/12 08:18:20;;;;;;;19.60;16.47;;;;;;;6.52;63.94;98382.16;8317803;28;20237;-64
2021/11/12 08:22:28;;;;;;;36.70;18.93;;;;;;;5.84;65.61;98386.03;8317371;28;20225;-64
2021/11/12 08:26:36;;;;;;;53.97;20.17;;;;;;;5.84;65.47;98378.31;8316560;28;20240;-64
2021/11/12 08:35:18;;;;;;;32.47;17.77;;;;;;;6.49;64.04;98359.06;8316896;28;20235;-64
2021/11/12 08:39:37;;;;;;;20.17;16.40;;;;;;;6.03;66.75;98360.84;8316985;28;20244;-64
2021/11/12 08:43:45;;;;;;;28.20;16.77;;;;;;;6.54;64.74;98365.78;8316474;28;20229;-64
2021/11/12 08:47:51;;;;;;;17.27;15.20;;;;;;;6.30;64.74;98361.16;8316734;28;20304;-64
2021/11/12 08:51:57;;;;;;;16.27;14.63;;;;;;;6.52;64.50;98348.69;8316381;28;20421;-64
2021/11/12 08:56:00;;;;;;;82.67;16.33;;;;;;;6.19;64.59;98361.41;8316463;28;20236;-64
2021/11/12 09:00:05;;;;;;;32.30;15.10;;;;;;;6.24;64.33;98359.56;8316383;28;20531;-65
2021/11/12 09:04:08;;;;;;;123.67;17.80;;;;;;;6.33;64.76;98353.41;8316399;28;20414;-64
2021/11/12 09:08:12;;;;;;;32.37;15.40;;;;;;;5.92;66.15;98348.19;8315892;28;20424;-64
2021/11/12 09:12:17;;;;;;;22.43;14.40;;;;;;;6.02;65.96;98346.31;8310297;28;20543;-64
2021/11/12 09:16:29;;;;;;;15.77;14.13;;;;;;;6.14;65.89;98358.91;8293937;28;20234;-64
2021/11/12 09:20:36;;;;;;;27.87;15.00;;;;;;;6.30;64.79;98343.16;8284185;28;20240;-65
2021/11/12 09:24:42;;;;;;;20.40;14.57;;;;;;;6.59;63.94;98335.66;8315339;28;20236;-64
2021/11/12 09:28:45;;;;;;;16.47;14.73;;;;;;;6.68;64.24;98338.91;8315040;28;20351;-65
2021/11/12 09:32:48;;;;;;;17.47;15.47;;;;;;;6.89;63.30;98338.41;8315285;28;20229;-64
2021/11/12 09:36:52;;;;;;;18.67;16.17;;;;;;;7.17;62.42;98335.16;8315207;28;20232;-64
2021/11/12 09:40:58;;;;;;;17.17;15.30;;;;;;;6.90;63.71;98331.53;8315208;28;20539;-65
2021/11/12 09:45:01;;;;;;;22.87;16.93;;;;;;;6.91;63.18;98339.25;8315087;28;20235;-65
2021/11/12 09:49:04;;;;;;;18.33;15.87;;;;;;;6.67;64.21;98332.91;8315274;28;20270;-64
2021/11/12 09:53:08;;;;;;;20.10;16.53;;;;;;;6.97;63.01;98326.22;8314041;28;20237;-60
2021/11/12 09:57:13;;;;;;;25.27;18.60;;;;;;;6.87;63.69;98314.41;8315026;28;20236;-60
2021/11/12 10:01:17;;;;;;;22.33;17.43;;;;;;;7.25;62.70;98304.91;8315071;28;20224;-59
2021/11/12 10:05:39;;;;;;;24.53;17.00;;;;;;;7.37;62.04;98296.03;8314857;28;20233;-60
2021/11/12 10:09:44;;;;;;;19.60;17.47;;;;;;;7.32;62.33;98301.28;8314128;28;20243;-60
2021/11/12 10:13:52;;;;;;;30.90;19.13;;;;;;;6.76;63.78;98295.81;8314960;28;20229;-60
2021/11/12 10:18:05;;;;;;;22.07;17.03;;;;;;;7.03;63.38;98292.56;8314744;28;20234;-60
2021/11/12 10:22:09;;;;;;;22.00;18.77;;;;;;;6.72;64.06;98295.06;8320937;28;20229;-60
2021/11/12 10:26:30;;;;;;;27.23;18.53;;;;;;;6.40;66.27;98291.50;8320404;28;20237;-60
2021/11/12 10:30:40;;;;;;;16.03;14.37;;;;;;;7.60;65.84;98288.53;8320720;28;20343;-60
2021/11/12 10:34:43;;;;;;;18.23;16.23;;;;;;;7.72;61.77;98278.78;8320575;28;20578;-61
2021/11/12 10:38:49;;;;;;;22.50;18.80;;;;;;;7.03;63.22;98277.13;8320578;28;20235;-61
2021/11/12 10:42:54;;;;;;;23.10;18.47;;;;;;;7.23;62.45;98268.03;8320623;28;20535;-60
2021/11/12 10:47:03;;;;;;;19.27;17.20;;;;;;;7.27;63.07;98264.50;8320336;28;20232;-60
2021/11/12 10:51:22;;;;;;;19.87;17.10;;;;;;;6.85;64.20;98257.84;8320489;28;20554;-63
2021/11/12 10:55:26;;;;;;;19.33;17.33;;;;;;;7.16;63.54;98254.47;8319903;28;20221;-65
2021/11/12 10:59:28;;;;;;;20.20;16.27;;;;;;;7.21;62.64;98256.94;8320158;28;20248;-64
2021/11/12 11:03:33;;;;;;;20.50;18.17;;;;;;;6.94;63.92;98243.88;8319896;28;20565;-63
2021/11/12 11:07:36;;;;;;;20.13;17.93;;;;;;;6.56;64.55;98221.66;8320105;28;20240;-64
2021/11/12 11:11:40;;;;;;;18.10;16.20;;;;;;;6.71;64.54;98228.16;8319562;28;20241;-63
2021/11/12 11:15:45;;;;;;;20.97;18.03;;;;;;;6.85;64.07;98233.81;8320020;28;20425;-63
2021/11/12 11:19:50;;;;;;;20.23;17.33;;;;;;;6.99;63.59;98236.06;8319748;28;20239;-63
2021/11/12 11:23:55;;;;;;;24.10;17.97;;;;;;;6.76;64.46;98231.44;8319626;28;20236;-63
2021/11/12 11:28:00;;;;;;;19.33;17.33;;;;;;;7.15;63.33;98219.28;8319705;28;20233;-63
2021/11/12 11:32:03;;;;;;;19.80;17.30;;;;;;;7.01;64.52;98219.66;8318396;28;20235;-63
2021/11/12 11:36:10;;;;;;;19.93;16.43;;;;;;;6.61;65.45;98200.06;8318845;28;20228;-63
2021/11/12 11:40:15;;;;;;;17.03;15.27;;;;;;;6.78;64.72;98189.38;8318962;28;20433;-59
2021/11/12 11:44:19;;;;;;;19.20;16.40;;;;;;;6.73;64.85;98195.50;8318471;28;20229;-60
2021/11/12 11:48:23;;;;;;;21.67;15.87;;;;;;;6.75;65.03;98184.28;8318575;28;20237;-60
2021/11/12 11:52:47;;;;;;;33.63;18.33;;;;;;;6.76;65.15;98180.84;8317452;28;20533;-60
2021/11/12 11:56:52;;;;;;;18.73;16.73;;;;;;;6.65;65.14;98190.56;8314455;28;20340;-60
2021/11/12 12:01:27;;;;;;;19.07;16.37;;;;;;;6.62;65.71;98185.47;8318239;28;20554;-60
2021/11/12 12:05:30;;;;;;;19.93;15.20;;;;;;;6.59;66.54;98181.25;8317776;28;20232;-60
2021/11/12 12:09:45;;;;;;;16.47;14.77;;;;;;;6.64;65.53;98187.16;8317500;28;20468;-60
2021/11/12 12:13:48;;;;;;;16.37;14.20;;;;;;;6.74;65.37;98179.16;8317870;28;20236;-60
2021/11/12 12:18:09;;;;;;;15.93;14.23;;;;;;;7.00;64.39;98170.78;8318091;28;20235;-60
2021/11/12 13:24:31;;;;;;;16.43;14.67;;;;;;;6.80;66.07;98100.06;8251201;28;20230;-61
2021/11/12 13:28:37;;;;;;;17.93;15.07;;;;;;;7.13;65.46;98102.59;8265881;28;20229;-60
2021/11/12 13:32:41;;;;;;;20.10;13.77;;;;;;;7.40;64.38;98094.97;8265489;28;20237;-60
2021/11/12 13:36:44;;;;;;;16.10;14.43;;;;;;;6.34;68.42;98084.97;8266023;28;20229;-60
2021/11/12 13:40:47;;;;;;;18.97;14.80;;;;;;;6.78;66.84;98086.41;8281404;28;20256;-60
2021/11/12 13:44:52;;;;;;;16.27;14.57;;;;;;;7.01;66.42;98087.50;8271684;28;20236;-60
2021/11/12 13:48:56;;;;;;;15.63;13.87;;;;;;;7.14;65.66;98075.09;8265732;28;20237;-61
2021/11/12 13:53:02;;;;;;;19.23;15.07;;;;;;;7.44;65.08;98071.66;8265226;28;20416;-60
2021/11/12 13:57:10;;;;;;;20.00;16.53;;;;;;;7.28;65.97;98077.31;8265429;28;20234;-59
2021/11/12 14:01:20;;;;;;;20.97;14.93;;;;;;;7.36;65.61;98076.16;8265433;28;20233;-60
2021/11/12 14:05:24;;;;;;;20.57;16.63;;;;;;;7.19;66.46;98080.97;8265563;28;20441;-60
2021/11/12 14:09:33;;;;;;;17.63;15.73;;;;;;;7.36;66.14;98072.75;8269156;28;20240;-64
2021/11/12 14:13:37;;;;;;;21.03;15.77;;;;;;;7.57;65.28;98064.38;8286204;28;20311;-65
2021/11/12 14:17:53;;;;;;;25.60;17.33;;;;;;;7.37;65.85;98064.16;8297764;28;20535;-63
2021/11/12 14:21:58;;;;;;;29.13;16.43;;;;;;;7.31;66.54;98072.91;8296908;28;20241;-63
2021/11/12 14:26:22;;;;;;;21.17;16.60;;;;;;;7.57;65.80;98064.38;8295073;28;20229;-64
2021/11/12 14:30:46;;;;;;;24.30;17.60;;;;;;;6.92;68.04;98056.84;8313786;28;20225;-66
2021/11/12 14:35:02;;;;;;;18.83;16.83;;;;;;;7.10;68.02;98047.75;8314286;28;20232;-64
2021/11/12 14:39:18;;;;;;;21.97;18.23;;;;;;;7.15;68.13;98039.00;8314123;28;20233;-64
2021/11/12 14:43:30;;;;;;;21.23;16.80;;;;;;;7.60;66.51;98043.66;8314026;28;20233;-64
2021/11/12 14:47:41;;;;;;;22.57;18.63;;;;;;;7.62;65.67;98044.47;8313645;28;20229;-64
2021/11/12 14:51:58;;;;;;;23.47;18.07;;;;;;;7.31;66.63;98049.72;8314012;28;20428;-64
2021/11/12 14:56:09;;;;;;;20.00;17.90;;;;;;;7.33;66.43;98047.94;8313949;28;20239;-64
2021/11/12 15:00:16;;;;;;;20.40;16.63;;;;;;;7.52;66.81;98055.97;8313849;28;20233;-64
2021/11/12 15:04:19;;;;;;;20.20;17.73;;;;;;;7.76;65.73;98066.38;8314009;28;20229;-64
2021/11/12 15:08:24;;;;;;;19.40;17.03;;;;;;;7.64;66.18;98063.28;8319265;28;20240;-64
2021/11/12 15:12:28;;;;;;;19.37;17.17;;;;;;;7.72;65.52;98065.63;8316869;28;20229;-64
2021/11/12 15:16:32;;;;;;;24.70;19.77;;;;;;;7.50;66.90;98057.75;8286638;28;20237;-65
2021/11/12 15:20:37;;;;;;;22.07;18.90;;;;;;;7.20;67.70;98051.78;8315703;28;20252;-64
2021/11/12 15:24:49;;;;;;;20.37;18.17;;;;;;;7.72;65.96;98060.47;8304149;28;20257;-63
2021/11/12 15:29:07;;;;;;;21.37;18.17;;;;;;;7.99;65.03;98060.50;8319058;28;20247;-64
2021/11/12 15:33:15;;;;;;;23.43;20.13;;;;;;;8.16;64.18;98059.94;8319171;28;20229;-65
2021/11/12 15:37:26;;;;;;;22.87;20.33;;;;;;;8.20;63.76;98059.78;8318942;28;20233;-66
2021/11/12 15:46:01;;;;;;;23.77;19.37;;;;;;;8.05;64.52;98049.97;8307280;28;20233;-66
2021/11/12 15:50:09;;;;;;;22.13;19.83;;;;;;;8.06;64.69;98050.84;8318572;28;20601;-67
2021/11/12 15:58:48;;;;;;;23.07;20.67;;;;;;;8.32;63.67;98068.88;8312703;28;20235;-67
2021/11/12 16:11:43;;;;;;;24.00;20.50;;;;;;;8.32;63.67;98078.31;8279672;28;20241;-67
2021/11/12 16:29:06;;;;;;;23.53;21.03;;;;;;;8.30;63.68;98077.53;8304073;28;20245;-66
2021/11/12 16:33:10;;;;;;;24.90;22.20;;;;;;;8.33;63.36;98087.78;8313695;28;20229;-66
2021/11/12 16:37:25;;;;;;;25.53;22.70;;;;;;;8.47;63.12;98087.31;8316947;28;20278;-66
2021/11/12 16:41:31;;;;;;;28.47;25.37;;;;;;;8.39;63.24;98098.72;8316412;28;20229;-66
2021/11/12 16:45:49;;;;;;;27.53;24.07;;;;;;;8.51;63.22;98081.16;8316615;28;20424;-66
2021/11/12 16:50:11;;;;;;;25.13;22.43;;;;;;;8.41;63.23;98081.50;8316741;28;20239;-66
2021/11/12 16:54:24;;;;;;;25.47;22.17;;;;;;;8.17;64.17;98085.69;8300258;28;20235;-66
2021/11/12 16:58:38;;;;;;;28.27;23.33;;;;;;;8.14;63.79;98087.53;8283615;28;20236;-66
2021/11/12 17:02:46;;;;;;;25.97;23.27;;;;;;;8.07;64.40;98088.63;8283818;28;20234;-66
2021/11/12 17:06:51;;;;;;;24.47;21.87;;;;;;;8.41;63.17;98085.75;8283739;28;20237;-66
2021/11/12 17:11:07;;;;;;;26.73;23.87;;;;;;;8.48;63.03;98076.97;8283626;28;20237;-66
2021/11/12 17:15:25;;;;;;;26.60;23.53;;;;;;;8.36;63.25;98080.78;8302152;28;20239;-66
2021/11/12 17:19:35;;;;;;;25.37;22.47;;;;;;;8.33;63.55;98088.59;8315277;28;20236;-66
2021/11/12 17:50:05;;;;;;;29.40;26.17;;;;;;;8.01;65.03;98054.41;8315326;28;20233;-65
2021/11/12 18:02:56;;;;;;;30.87;25.93;;;;;;;8.07;64.85;98050.75;8314733;28;20228;-67
2021/11/12 18:07:09;;;;;;;29.57;25.63;;;;;;;8.08;65.21;98056.78;8314046;28;20270;-66
2021/11/12 21:47:16;;;;;;;42.20;30.17;;;;;;;6.80;70.22;97948.19;8300387;28;20200;-67
2021/11/12 21:51:24;;;;;;;40.10;29.00;;;;;;;7.20;68.26;97948.75;8300083;28;20220;-66
2021/11/12 21:55:28;;;;;;;50.97;29.40;;;;;;;6.61;70.29;97953.03;8300309;28;20223;-67
2021/11/12 21:59:31;;;;;;;48.80;30.20;;;;;;;6.50;71.45;97947.34;8299990;28;20201;-67
2021/11/12 22:03:36;;;;;;;36.13;28.73;;;;;;;6.63;70.70;97953.84;8300009;28;20538;-66
2021/11/12 22:07:39;;;;;;;47.93;31.70;;;;;;;7.01;68.79;97944.16;8299941;28;20197;-66
2021/11/12 22:11:43;;;;;;;46.07;29.50;;;;;;;6.83;69.56;97942.09;8299401;28;20532;-67
2021/11/12 22:15:46;;;;;;;37.73;29.77;;;;;;;7.11;68.29;97949.84;8304457;28;20197;-67
2021/11/12 22:19:49;;;;;;;34.13;25.53;;;;;;;7.32;67.82;97948.34;8306462;28;20208;-67
2021/11/12 22:23:52;;;;;;;32.83;26.10;;;;;;;7.51;67.45;97937.47;8319245;28;20197;-67
2021/11/12 22:27:56;;;;;;;27.83;23.53;;;;;;;7.76;66.25;97950.38;8323248;28;20200;-67
2021/11/12 22:32:00;;;;;;;30.07;24.63;;;;;;;7.81;65.33;97951.06;8320008;28;20438;-67
2021/11/12 22:36:16;;;;;;;27.47;21.83;;;;;;;7.79;65.74;97963.19;8323315;28;20268;-67
2021/11/12 22:40:19;;;;;;;29.10;24.07;;;;;;;7.74;65.70;97950.41;8323129;28;20499;-67
2021/11/12 22:44:23;;;;;;;26.60;23.07;;;;;;;7.66;65.69;97942.09;8322864;28;20200;-67
2021/11/12 22:48:26;;;;;;;41.13;24.50;;;;;;;7.33;66.41;97939.75;8322839;28;20209;-66
2021/11/12 22:52:29;;;;;;;36.30;25.53;;;;;;;7.32;67.08;97953.50;8321108;28;20236;-67
2021/11/12 22:56:33;;;;;;;35.53;25.47;;;;;;;7.19;67.56;97955.59;8320477;28;20233;-67
2021/11/12 23:01:01;;;;;;;33.90;27.07;;;;;;;7.11;68.16;97959.31;8320084;28;20248;-67
2021/11/12 23:05:04;;;;;;;44.90;25.93;;;;;;;7.09;67.40;97956.78;8319851;28;20235;-67
2021/11/12 23:09:07;;;;;;;31.20;25.57;;;;;;;7.08;67.98;97959.41;8319864;28;20233;-64
2021/11/12 23:13:10;;;;;;;55.40;28.10;;;;;;;6.91;67.47;97945.31;8319443;28;20233;-64
2021/11/12 23:17:14;;;;;;;30.03;25.63;;;;;;;7.64;66.01;97934.41;8319987;28;20229;-64
2021/11/12 23:21:18;;;;;;;33.10;25.33;;;;;;;7.80;65.31;97928.75;8319524;28;20232;-64
2021/11/12 23:25:21;;;;;;;24.10;21.50;;;;;;;8.10;64.15;97942.34;8319584;28;20228;-64
2021/11/12 23:29:24;;;;;;;24.83;21.33;;;;;;;7.85;64.34;97939.75;8319467;28;20236;-64
2021/11/12 23:33:29;;;;;;;27.07;21.30;;;;;;;7.90;64.75;97931.84;8319306;28;20255;-64
2021/11/12 23:37:31;;;;;;;23.73;19.97;;;;;;;8.21;63.18;97944.56;8319202;28;20244;-64
2021/11/12 23:41:34;;;;;;;19.67;17.77;;;;;;;8.29;62.77;97945.13;8319231;28;20251;-64
2021/11/12 23:45:37;;;;;;;19.10;17.20;;;;;;;8.36;62.54;97940.59;8319098;28;20232;-64
2021/11/12 23:49:42;;;;;;;23.20;18.97;;;;;;;8.17;62.18;97932.66;8318810;28;20233;-64
2021/11/12 23:53:45;;;;;;;26.63;18.97;;;;;;;7.79;63.57;97925.34;8318803;28;20254;-64
2021/11/12 23:57:49;;;;;;;21.20;18.93;;;;;;;8.15;62.71;97931.88;8318445;28;20418;-64
